createdAt,value
2019-01-25T00:02:00.683Z,-2.40
2019-01-25T00:04:26.858Z,-2.30
2019-01-25T00:06:53.265Z,-2.30
2019-01-25T00:09:19.462Z,-2.20
2019-01-25T00:11:45.587Z,-2.00
2019-01-25T00:14:11.742Z,-2.30
2019-01-25T00:16:38.076Z,-2.30
2019-01-25T00:19:04.609Z,-2.30
2019-01-25T00:21:30.797Z,-2.20
2019-01-25T00:23:56.986Z,-2.20
2019-01-25T00:26:23.319Z,-2.10
2019-01-25T00:28:49.490Z,-2.20
2019-01-25T00:31:15.868Z,-2.30
2019-01-25T00:33:41.995Z,-2.10
2019-01-25T00:36:08.313Z,-2.30
2019-01-25T00:38:34.400Z,-2.20
2019-01-25T00:41:00.548Z,-2.30
2019-01-25T00:43:26.690Z,-2.30
2019-01-25T00:45:53.058Z,-2.30
2019-01-25T00:48:19.241Z,-2.30
2019-01-25T00:50:45.468Z,-2.30
2019-01-25T00:53:11.942Z,-2.40
2019-01-25T00:55:38.332Z,-2.40
2019-01-25T00:58:04.717Z,-2.50
2019-01-25T01:00:30.990Z,-2.50
2019-01-25T01:02:57.146Z,-2.40
2019-01-25T01:05:23.489Z,-2.40
2019-01-25T01:07:51.108Z,-2.40
2019-01-25T01:10:17.535Z,-2.40
2019-01-25T01:12:43.624Z,-2.50
2019-01-25T01:15:12.582Z,-2.50
2019-01-25T01:17:38.706Z,-2.60
2019-01-25T01:20:08.316Z,-2.60
2019-01-25T01:22:34.447Z,-2.60
2019-01-25T01:25:00.676Z,-2.60
2019-01-25T01:27:26.864Z,-2.60
2019-01-25T01:29:52.934Z,-2.70
2019-01-25T01:32:19.058Z,-2.70
2019-01-25T01:34:45.148Z,-2.70
2019-01-25T01:37:11.242Z,-2.60
2019-01-25T01:39:37.358Z,-2.60
2019-01-25T01:42:03.567Z,-2.40
2019-01-25T01:44:29.700Z,-2.40
2019-01-25T01:46:56.019Z,-2.30
2019-01-25T01:49:22.082Z,-2.60
2019-01-25T01:51:48.182Z,-2.50
2019-01-25T01:54:14.302Z,-2.40
2019-01-25T01:56:40.551Z,-2.30
2019-01-25T01:59:06.630Z,-2.40
2019-01-25T02:01:32.759Z,-2.40
2019-01-25T02:03:58.990Z,-2.20
2019-01-25T02:06:25.352Z,-2.20
2019-01-25T02:08:51.506Z,-2.30
2019-01-25T02:11:17.840Z,-2.30
2019-01-25T02:13:44.055Z,-2.40
2019-01-25T02:16:10.302Z,-2.50
2019-01-25T02:18:36.558Z,-2.50
2019-01-25T02:21:04.236Z,-2.40
2019-01-25T02:23:30.487Z,-2.40
2019-01-25T02:25:56.751Z,-2.40
2019-01-25T02:28:22.839Z,-2.50
2019-01-25T02:30:48.963Z,-2.60
2019-01-25T02:33:15.242Z,-2.60
2019-01-25T02:35:41.442Z,-2.60
2019-01-25T02:38:07.587Z,-2.60
2019-01-25T02:40:39.070Z,-2.50
2019-01-25T02:43:01.993Z,-2.60
2019-01-25T02:45:28.239Z,-2.70
2019-01-25T02:47:54.411Z,-2.60
2019-01-25T02:50:20.661Z,-2.70
2019-01-25T02:52:47.079Z,-2.60
2019-01-25T02:55:14.281Z,-2.50
2019-01-25T02:57:40.479Z,-2.60
2019-01-25T03:00:18.592Z,-2.50
2019-01-25T03:02:44.907Z,-2.60
2019-01-25T03:05:12.405Z,-2.60
2019-01-25T03:07:38.502Z,-2.50
2019-01-25T03:10:08.462Z,-2.50
2019-01-25T03:12:34.673Z,-2.60
2019-01-25T03:15:00.862Z,-2.60
2019-01-25T03:17:26.983Z,-2.70
2019-01-25T03:19:53.167Z,-2.70
2019-01-25T03:22:19.261Z,-2.70
2019-01-25T03:24:45.355Z,-2.70
2019-01-25T03:27:11.499Z,-2.70
2019-01-25T03:29:37.624Z,-2.90
2019-01-25T03:32:03.842Z,-3.00
2019-01-25T03:34:30.075Z,-3.10
2019-01-25T03:36:56.306Z,-3.10
2019-01-25T03:39:22.399Z,-3.10
2019-01-25T03:41:48.603Z,-3.00
2019-01-25T03:44:14.712Z,-3.00
2019-01-25T03:46:40.841Z,-3.00
2019-01-25T03:49:07.321Z,-2.90
2019-01-25T03:51:33.464Z,-2.80
2019-01-25T03:53:59.737Z,-2.90
2019-01-25T03:56:25.887Z,-2.90
2019-01-25T03:58:52.057Z,-2.90
2019-01-25T04:01:18.185Z,-2.80
2019-01-25T04:03:44.411Z,-2.70
2019-01-25T04:06:10.589Z,-2.70
2019-01-25T04:08:36.850Z,-2.80
2019-01-25T04:11:04.215Z,-2.80
2019-01-25T04:13:30.498Z,-2.70
2019-01-25T04:15:56.905Z,-2.80
2019-01-25T04:18:23.080Z,-2.80
2019-01-25T04:20:49.208Z,-2.80
2019-01-25T04:23:15.352Z,-2.80
2019-01-25T04:25:41.524Z,-2.90
2019-01-25T04:28:07.891Z,-2.90
2019-01-25T04:30:33.954Z,-2.90
2019-01-25T04:33:00.164Z,-2.80
2019-01-25T04:35:26.576Z,-2.80
2019-01-25T04:37:52.958Z,-2.80
2019-01-25T04:40:19.350Z,-2.80
2019-01-25T04:42:45.643Z,-2.80
2019-01-25T04:45:14.613Z,-2.90
2019-01-25T04:47:40.984Z,-2.90
2019-01-25T04:50:12.827Z,-2.80
2019-01-25T04:52:39.053Z,-2.80
2019-01-25T04:55:14.708Z,-2.70
2019-01-25T04:57:40.770Z,-2.80
2019-01-25T05:00:12.271Z,-2.80
2019-01-25T05:02:38.953Z,-2.80
2019-01-25T05:05:05.773Z,-2.90
2019-01-25T05:07:31.896Z,-2.80
2019-01-25T05:09:58.056Z,-2.80
2019-01-25T05:12:24.383Z,-2.70
2019-01-25T05:14:50.566Z,-2.70
2019-01-25T05:17:16.706Z,-2.80
2019-01-25T05:19:43.722Z,-2.70
2019-01-25T05:22:09.945Z,-2.70
2019-01-25T05:24:36.126Z,-2.70
2019-01-25T05:27:03.515Z,-2.80
2019-01-25T05:29:48.133Z,-2.80
2019-01-25T05:32:14.358Z,-2.80
2019-01-25T05:34:40.423Z,-2.70
2019-01-25T05:37:10.404Z,-2.70
2019-01-25T05:39:36.479Z,-2.70
2019-01-25T05:42:02.817Z,-2.70
2019-01-25T05:44:29.042Z,-2.70
2019-01-25T05:46:55.130Z,-2.70
2019-01-25T05:49:22.757Z,-2.70
2019-01-25T05:51:49.303Z,-2.70
2019-01-25T05:54:15.479Z,-2.70
2019-01-25T05:56:41.824Z,-2.70
2019-01-25T05:59:07.916Z,-2.50
2019-01-25T06:01:34.194Z,-2.50
2019-01-25T06:04:00.309Z,-2.40
2019-01-25T06:06:26.392Z,-2.50
2019-01-25T06:08:52.487Z,-2.70
2019-01-25T06:11:18.560Z,-2.60
2019-01-25T06:13:44.866Z,-2.60
2019-01-25T06:16:11.250Z,-2.70
2019-01-25T06:18:37.376Z,-2.70
2019-01-25T06:21:03.949Z,-2.80
2019-01-25T06:23:30.094Z,-2.80
2019-01-25T06:25:57.713Z,-2.80
2019-01-25T06:28:24.414Z,-2.80
2019-01-25T06:30:50.494Z,-2.80
2019-01-25T06:33:16.641Z,-2.80
2019-01-25T06:35:42.961Z,-2.90
2019-01-25T06:38:09.039Z,-2.80
2019-01-25T06:40:35.252Z,-2.90
2019-01-25T06:43:01.342Z,-2.90
2019-01-25T06:45:27.462Z,-2.80
2019-01-25T06:47:53.542Z,-2.80
2019-01-25T06:50:19.677Z,-2.70
2019-01-25T06:52:45.859Z,-2.70
2019-01-25T06:55:12.179Z,-2.70
2019-01-25T06:57:40.207Z,-2.70
2019-01-25T07:00:13.065Z,-2.60
2019-01-25T07:02:39.396Z,-2.50
2019-01-25T07:05:07.136Z,-2.40
2019-01-25T07:07:34.254Z,-2.50
2019-01-25T07:10:00.525Z,-2.40
2019-01-25T07:12:26.739Z,-2.40
2019-01-25T07:14:52.811Z,-2.40
2019-01-25T07:17:20.857Z,-2.40
2019-01-25T07:19:46.984Z,-2.30
2019-01-25T07:22:13.075Z,-2.30
2019-01-25T07:24:39.198Z,-2.30
2019-01-25T07:27:05.396Z,-2.20
2019-01-25T07:29:31.536Z,-2.10
2019-01-25T07:31:57.825Z,-2.10
2019-01-25T07:34:24.011Z,-2.10
2019-01-25T07:36:52.020Z,-2.20
2019-01-25T07:39:21.121Z,-2.20
2019-01-25T07:41:47.295Z,-2.20
2019-01-25T07:44:13.425Z,-2.10
2019-01-25T07:46:39.673Z,-2.00
2019-01-25T07:49:05.789Z,-2.10
2019-01-25T07:51:31.865Z,-2.20
2019-01-25T07:53:58.007Z,-2.10
2019-01-25T07:56:24.222Z,-2.10
2019-01-25T07:58:50.474Z,-2.20
2019-01-25T08:01:16.658Z,-2.20
2019-01-25T08:03:42.883Z,-2.10
2019-01-25T08:06:09.054Z,-2.10
2019-01-25T08:08:35.139Z,-2.20
2019-01-25T08:11:01.259Z,-2.30
2019-01-25T08:13:27.448Z,-2.40
2019-01-25T08:15:53.684Z,-2.40
2019-01-25T08:18:19.913Z,-2.50
2019-01-25T08:20:46.077Z,-2.50
2019-01-25T08:23:12.231Z,-2.40
2019-01-25T08:25:38.423Z,-2.40
2019-01-25T08:28:04.747Z,-2.40
2019-01-25T08:30:30.925Z,-2.50
2019-01-25T08:32:57.273Z,-2.50
2019-01-25T08:35:23.419Z,-2.40
2019-01-25T08:37:49.741Z,-2.70
2019-01-25T08:40:16.721Z,-2.60
2019-01-25T08:42:42.945Z,-2.50
2019-01-25T08:45:11.731Z,-2.40
2019-01-25T08:47:38.011Z,-2.30
2019-01-25T08:50:08.087Z,-2.30
2019-01-25T08:52:34.320Z,-2.40
2019-01-25T08:55:00.664Z,-2.40
2019-01-25T08:57:26.884Z,-2.30
2019-01-25T08:59:53.201Z,-2.30
2019-01-25T09:02:19.314Z,-2.40
2019-01-25T09:04:45.582Z,-2.30
2019-01-25T09:07:11.683Z,-2.20
2019-01-25T09:09:37.773Z,-2.20
2019-01-25T09:12:03.991Z,-2.20
2019-01-25T09:14:30.216Z,-2.30
2019-01-25T09:16:56.390Z,-2.30
2019-01-25T09:19:22.522Z,-2.30
2019-01-25T09:21:48.940Z,-2.30
2019-01-25T09:24:15.106Z,-2.20
2019-01-25T09:26:41.513Z,-2.20
2019-01-25T09:29:07.726Z,-2.10
2019-01-25T09:31:33.845Z,-2.00
2019-01-25T09:33:59.960Z,-2.00
2019-01-25T09:36:26.044Z,-1.90
2019-01-25T09:38:52.158Z,-1.90
2019-01-25T09:41:18.318Z,-2.20
2019-01-25T09:43:44.532Z,-2.20
2019-01-25T09:46:12.138Z,-2.00
2019-01-25T09:48:39.286Z,-2.10
2019-01-25T09:51:05.583Z,-2.00
2019-01-25T09:53:34.872Z,-1.90
2019-01-25T09:56:05.788Z,-1.70
2019-01-25T09:58:33.886Z,-1.80
2019-01-25T10:01:12.920Z,-1.80
2019-01-25T10:03:42.706Z,-2.00
2019-01-25T10:06:17.178Z,-2.20
2019-01-25T10:08:50.857Z,-2.20
2019-01-25T10:11:20.306Z,-2.20
2019-01-25T10:13:55.333Z,-2.00
2019-01-25T10:16:27.568Z,-2.00
2019-01-25T10:18:59.056Z,-1.90
2019-01-25T10:21:35.108Z,-2.00
2019-01-25T10:24:08.864Z,-1.80
2019-01-25T10:26:42.992Z,-2.00
2019-01-25T10:29:16.680Z,-1.50
2019-01-25T10:31:48.592Z,-1.20
2019-01-25T10:34:21.750Z,-1.10
2019-01-25T10:37:01.480Z,-1.10
2019-01-25T10:39:37.131Z,-1.10
2019-01-25T10:42:11.340Z,-1.30
2019-01-25T10:44:39.571Z,-1.40
2019-01-25T10:47:19.638Z,-1.50
2019-01-25T10:49:59.984Z,-1.20
2019-01-25T10:52:39.770Z,-1.00
2019-01-25T10:55:14.489Z,-1.10
2019-01-25T10:57:54.046Z,-1.20
2019-01-25T11:00:32.561Z,-1.40
2019-01-25T11:03:04.359Z,-1.50
2019-01-25T11:05:36.003Z,-1.40
2019-01-25T11:08:16.598Z,-1.40
2019-01-25T11:10:55.633Z,-0.80
2019-01-25T11:13:36.399Z,-0.10
2019-01-25T11:16:12.025Z,0.00
2019-01-25T11:18:50.569Z,0.80
2019-01-25T11:21:29.863Z,0.70
2019-01-25T11:24:13.374Z,0.70
2019-01-25T11:26:40.584Z,-0.10
2019-01-25T11:29:06.853Z,-0.60
2019-01-25T11:31:33.049Z,-0.80
2019-01-25T11:33:59.175Z,-0.80
2019-01-25T11:36:25.409Z,-1.10
2019-01-25T11:38:51.643Z,-1.20
2019-01-25T11:41:17.791Z,-1.30
2019-01-25T11:43:44.033Z,-1.50
2019-01-25T11:46:10.097Z,-1.60
2019-01-25T11:48:36.283Z,-1.70
2019-01-25T11:51:02.447Z,-1.70
2019-01-25T11:53:28.544Z,-1.50
2019-01-25T11:55:54.623Z,-1.60
2019-01-25T11:58:20.733Z,-1.50
2019-01-25T12:00:47.117Z,-1.40
2019-01-25T12:03:13.783Z,-1.20
2019-01-25T12:05:40.098Z,-1.10
2019-01-25T12:08:06.545Z,-1.30
2019-01-25T12:10:33.131Z,-1.30
2019-01-25T12:12:59.291Z,-1.30
2019-01-25T12:15:25.544Z,-1.30
2019-01-25T12:17:51.863Z,-1.40
2019-01-25T12:20:20.444Z,-1.40
2019-01-25T12:22:46.685Z,-1.60
2019-01-25T12:25:13.311Z,-1.60
2019-01-25T12:27:39.491Z,-1.40
2019-01-25T12:30:09.457Z,-1.30
2019-01-25T12:32:35.618Z,-1.30
2019-01-25T12:35:07.292Z,-1.50
2019-01-25T12:37:30.289Z,-1.30
2019-01-25T12:39:56.416Z,-1.20
2019-01-25T12:42:22.639Z,-1.00
2019-01-25T12:44:48.739Z,-0.80
2019-01-25T12:47:26.393Z,-0.80
2019-01-25T12:50:00.285Z,-1.00
2019-01-25T12:52:36.508Z,-1.30
2019-01-25T12:55:15.324Z,-1.00
2019-01-25T12:57:55.938Z,-0.80
2019-01-25T13:00:31.047Z,-0.90
2019-01-25T13:03:07.224Z,-1.00
2019-01-25T13:05:36.666Z,-1.20
2019-01-25T13:08:05.882Z,-1.60
2019-01-25T13:10:34.848Z,-1.80
2019-01-25T13:13:03.958Z,-1.90
2019-01-25T13:15:33.388Z,-2.00
2019-01-25T13:18:03.864Z,-1.90
2019-01-25T13:20:30.230Z,-1.70
2019-01-25T13:22:57.260Z,-1.90
2019-01-25T13:25:27.940Z,-1.90
2019-01-25T13:28:03.609Z,-1.90
2019-01-25T13:30:40.116Z,-2.00
2019-01-25T13:33:19.450Z,-1.90
2019-01-25T13:35:49.652Z,-2.10
2019-01-25T13:38:28.611Z,-2.00
2019-01-25T13:41:03.330Z,-2.00
2019-01-25T13:43:29.724Z,-2.10
2019-01-25T13:45:56.208Z,-2.10
2019-01-25T13:48:22.308Z,-2.00
2019-01-25T13:50:48.457Z,-2.00
2019-01-25T13:53:14.710Z,-2.10
2019-01-25T13:55:42.713Z,-2.10
2019-01-25T13:58:09.106Z,-2.00
2019-01-25T14:00:35.848Z,-1.90
2019-01-25T14:03:02.200Z,-1.90
2019-01-25T14:05:28.833Z,-1.90
2019-01-25T14:07:55.114Z,-1.90
2019-01-25T14:10:25.040Z,-2.00
2019-01-25T14:12:51.308Z,-1.80
2019-01-25T14:15:17.760Z,-1.60
2019-01-25T14:17:44.068Z,-1.60
2019-01-25T14:20:23.392Z,-1.60
2019-01-25T14:22:49.992Z,-1.40
2019-01-25T14:25:16.505Z,-1.30
2019-01-25T14:27:42.692Z,-1.10
2019-01-25T14:30:24.974Z,-1.20
2019-01-25T14:32:51.316Z,-1.20
2019-01-25T14:35:18.627Z,-1.00
2019-01-25T14:37:45.040Z,-1.00
2019-01-25T14:40:11.252Z,-0.90
2019-01-25T14:42:37.355Z,-1.00
2019-01-25T14:45:15.144Z,-1.10
2019-01-25T14:47:41.582Z,-1.40
2019-01-25T14:50:11.502Z,-1.40
2019-01-25T14:52:37.632Z,-1.40
2019-01-25T14:55:04.902Z,-1.50
2019-01-25T14:57:31.121Z,-1.70
2019-01-25T14:59:57.360Z,-1.70
2019-01-25T15:02:23.656Z,-1.60
2019-01-25T15:04:49.842Z,-1.50
2019-01-25T15:07:16.083Z,-1.50
2019-01-25T15:09:42.209Z,-1.40
2019-01-25T15:12:08.615Z,-1.50
2019-01-25T15:14:34.726Z,-1.40
2019-01-25T15:17:00.861Z,-1.30
2019-01-25T15:19:27.098Z,-1.20
2019-01-25T15:21:53.339Z,-1.30
2019-01-25T15:24:19.565Z,-1.50
2019-01-25T15:26:45.762Z,-1.70
2019-01-25T15:29:11.882Z,-1.70
2019-01-25T15:31:38.030Z,-1.70
2019-01-25T15:34:04.193Z,-1.70
2019-01-25T15:36:30.496Z,-1.70
2019-01-25T15:38:56.625Z,-1.80
2019-01-25T15:41:22.962Z,-1.90
2019-01-25T15:43:49.178Z,-1.90
2019-01-25T15:46:15.366Z,-2.00
2019-01-25T15:48:41.483Z,-1.90
2019-01-25T15:51:07.605Z,-2.10
2019-01-25T15:53:33.729Z,-2.20
2019-01-25T15:56:00.198Z,-2.30
2019-01-25T15:58:26.802Z,-2.20
2019-01-25T16:00:53.034Z,-2.10
2019-01-25T16:03:19.259Z,-2.10
2019-01-25T16:05:45.370Z,-2.10
2019-01-25T16:08:11.447Z,-2.10
2019-01-25T16:10:37.657Z,-2.20
2019-01-25T16:13:03.999Z,-2.10
2019-01-25T16:15:30.435Z,-2.00
2019-01-25T16:17:56.800Z,-2.00
2019-01-25T16:20:23.149Z,-2.00
2019-01-25T16:22:51.082Z,-2.00
2019-01-25T16:25:23.386Z,-2.00
2019-01-25T16:27:49.705Z,-2.10
2019-01-25T16:30:21.347Z,-2.10
2019-01-25T16:32:47.483Z,-2.10
2019-01-25T16:35:14.265Z,-2.10
2019-01-25T16:37:40.393Z,-2.00
2019-01-25T16:40:12.869Z,-2.00
2019-01-25T16:42:39.033Z,-1.90
2019-01-25T16:45:08.953Z,-1.90
2019-01-25T16:47:35.068Z,-2.00
2019-01-25T16:50:01.178Z,-2.00
2019-01-25T16:52:27.303Z,-1.90
2019-01-25T16:54:53.561Z,-2.00
2019-01-25T16:57:19.742Z,-2.00
2019-01-25T16:59:45.883Z,-2.00
2019-01-25T17:02:12.073Z,-1.90
2019-01-25T17:04:38.176Z,-1.80
2019-01-25T17:07:04.400Z,-1.80
2019-01-25T17:09:30.616Z,-1.90
2019-01-25T17:11:56.753Z,-1.90
2019-01-25T17:14:23.006Z,-1.80
2019-01-25T17:16:49.202Z,-1.70
2019-01-25T17:19:15.335Z,-1.90
2019-01-25T17:21:41.576Z,-1.80
2019-01-25T17:24:07.782Z,-1.80
2019-01-25T17:26:33.956Z,-1.70
2019-01-25T17:29:00.180Z,-1.70
2019-01-25T17:31:26.314Z,-1.60
2019-01-25T17:33:52.457Z,-1.60
2019-01-25T17:36:18.698Z,-1.60
2019-01-25T17:38:44.934Z,-1.70
2019-01-25T17:41:11.222Z,-1.70
2019-01-25T17:43:37.324Z,-1.80
2019-01-25T17:46:03.671Z,-1.80
2019-01-25T17:48:29.876Z,-1.80
2019-01-25T17:50:56.076Z,-1.70
2019-01-25T17:53:22.178Z,-1.70
2019-01-25T17:55:48.305Z,-1.60
2019-01-25T17:58:15.205Z,-1.60
2019-01-25T18:00:45.986Z,-1.60
2019-01-25T18:03:12.127Z,-1.60
2019-01-25T18:05:38.346Z,-1.50
2019-01-25T18:08:04.925Z,-1.50
2019-01-25T18:10:31.129Z,-1.60
2019-01-25T18:12:57.358Z,-1.50
2019-01-25T18:15:23.760Z,-1.50
2019-01-25T18:17:49.994Z,-1.50
2019-01-25T18:20:21.667Z,-1.40
2019-01-25T18:22:47.943Z,-1.40
2019-01-25T18:25:18.869Z,-1.50
2019-01-25T18:27:48.856Z,-1.50
2019-01-25T18:30:43.361Z,-1.50
2019-01-25T18:33:09.525Z,-1.40
2019-01-25T18:35:35.889Z,-1.50
2019-01-25T18:38:03.009Z,-1.40
2019-01-25T18:40:29.139Z,-1.40
2019-01-25T18:42:55.266Z,-1.40
2019-01-25T18:45:21.617Z,-1.40
2019-01-25T18:47:47.813Z,-1.40
2019-01-25T18:50:15.389Z,-1.40
2019-01-25T18:52:41.593Z,-1.50
2019-01-25T18:55:14.293Z,-1.40
2019-01-25T18:57:40.409Z,-1.40
2019-01-25T19:00:10.385Z,-1.40
2019-01-25T19:02:36.571Z,-1.40
2019-01-25T19:05:04.269Z,-1.50
2019-01-25T19:07:30.371Z,-1.40
2019-01-25T19:09:56.521Z,-1.50
2019-01-25T19:12:22.745Z,-1.40
2019-01-25T19:14:49.052Z,-1.40
2019-01-25T19:17:15.325Z,-1.40
2019-01-25T19:19:41.427Z,-1.40
2019-01-25T19:22:07.539Z,-1.30
2019-01-25T19:24:33.608Z,-1.30
2019-01-25T19:27:00.060Z,-1.30
2019-01-25T19:29:26.369Z,-1.30
2019-01-25T19:31:52.721Z,-1.40
2019-01-25T19:34:19.062Z,-1.40
2019-01-25T19:36:45.461Z,-1.40
2019-01-25T19:39:12.021Z,-1.40
2019-01-25T19:41:38.239Z,-1.40
2019-01-25T19:44:04.499Z,-1.30
2019-01-25T19:46:30.686Z,-1.30
2019-01-25T19:48:56.787Z,-1.30
2019-01-25T19:51:23.047Z,-1.30
2019-01-25T19:53:49.293Z,-1.30
2019-01-25T19:56:15.460Z,-1.30
2019-01-25T19:58:41.703Z,-1.30
2019-01-25T20:01:08.093Z,-1.30
2019-01-25T20:03:34.319Z,-1.30
2019-01-25T20:06:00.615Z,-1.30
2019-01-25T20:08:26.850Z,-1.30
2019-01-25T20:10:53.108Z,-1.20
2019-01-25T20:13:19.334Z,-1.20
2019-01-25T20:15:45.433Z,-1.20
2019-01-25T20:18:11.557Z,-1.30
2019-01-25T20:20:39.156Z,-1.20
2019-01-25T20:23:05.957Z,-1.20
2019-01-25T20:25:32.479Z,-1.20
2019-01-25T20:27:58.574Z,-1.10
2019-01-25T20:30:49.693Z,-1.00
2019-01-25T20:33:14.786Z,-1.00
2019-01-25T20:35:42.180Z,-1.00
2019-01-25T20:38:08.613Z,-1.00
2019-01-25T20:40:34.935Z,-1.00
2019-01-25T20:43:01.218Z,-1.00
2019-01-25T20:45:29.719Z,-1.00
2019-01-25T20:47:55.973Z,-1.00
2019-01-25T20:50:25.940Z,-1.10
2019-01-25T20:52:52.351Z,-1.00
2019-01-25T20:55:18.969Z,-1.00
2019-01-25T20:57:45.203Z,-1.00
2019-01-25T21:00:15.065Z,-1.00
2019-01-25T21:02:41.451Z,-1.00
2019-01-25T21:05:07.871Z,-1.10
2019-01-25T21:07:34.216Z,-1.20
2019-01-25T21:10:00.475Z,-1.30
2019-01-25T21:12:26.806Z,-1.20
2019-01-25T21:14:52.998Z,-1.20
2019-01-25T21:17:19.255Z,-1.20
2019-01-25T21:19:45.381Z,-1.20
2019-01-25T21:22:11.475Z,-1.20
2019-01-25T21:24:37.633Z,-1.10
2019-01-25T21:27:04.007Z,-1.20
2019-01-25T21:29:30.118Z,-1.20
2019-01-25T21:31:56.317Z,-1.20
2019-01-25T21:34:22.464Z,-1.20
2019-01-25T21:36:48.570Z,-1.20
2019-01-25T21:39:14.805Z,-1.20
2019-01-25T21:41:40.868Z,-1.10
2019-01-25T21:44:07.035Z,-1.10
2019-01-25T21:46:40.003Z,-1.10
2019-01-25T21:49:01.332Z,-1.00
2019-01-25T21:51:27.482Z,-1.00
2019-01-25T21:53:53.670Z,-1.00
2019-01-25T21:56:20.036Z,-1.10
2019-01-25T21:58:46.275Z,-1.00
2019-01-25T22:01:12.518Z,-1.00
2019-01-25T22:03:38.741Z,-1.00
2019-01-25T22:06:06.056Z,-1.00
2019-01-25T22:08:32.341Z,-1.00
2019-01-25T22:10:58.593Z,-1.10
2019-01-25T22:13:24.911Z,-1.10
2019-01-25T22:15:51.341Z,-1.00
2019-01-25T22:18:17.585Z,-1.00
2019-01-25T22:20:43.911Z,-1.00
2019-01-25T22:23:10.507Z,-1.00
2019-01-25T22:25:37.331Z,-1.00
2019-01-25T22:28:03.768Z,-0.90
2019-01-25T22:30:30.125Z,-0.90
2019-01-25T22:32:56.626Z,-1.00
2019-01-25T22:35:23.150Z,-1.00
2019-01-25T22:37:49.558Z,-1.00
2019-01-25T22:40:24.642Z,-0.90
2019-01-25T22:42:51.176Z,-0.90
2019-01-25T22:45:19.790Z,-0.90
2019-01-25T22:47:46.219Z,-0.90
2019-01-25T22:50:15.764Z,-1.00
2019-01-25T22:52:41.975Z,-1.00
2019-01-25T22:55:11.165Z,-0.90
2019-01-25T22:57:37.575Z,-0.90
2019-01-25T23:00:24.491Z,-0.90
2019-01-25T23:02:50.708Z,-0.90
2019-01-25T23:05:20.674Z,-0.80
2019-01-25T23:07:46.935Z,-0.90
2019-01-25T23:10:13.324Z,-0.90
2019-01-25T23:12:39.475Z,-0.90
2019-01-25T23:15:07.654Z,-0.90
2019-01-25T23:17:33.919Z,-0.90
2019-01-25T23:20:00.241Z,-0.90
2019-01-25T23:22:26.416Z,-0.90
2019-01-25T23:24:52.547Z,-0.80
2019-01-25T23:27:18.675Z,-0.90
2019-01-25T23:29:44.935Z,-0.90
2019-01-25T23:32:11.104Z,-0.90
2019-01-25T23:34:37.217Z,-0.90
2019-01-25T23:37:03.554Z,-0.90
2019-01-25T23:39:29.743Z,-0.90
2019-01-25T23:41:55.849Z,-0.90
2019-01-25T23:44:22.000Z,-0.90
2019-01-25T23:46:48.113Z,-0.90
2019-01-25T23:49:14.235Z,-0.90
2019-01-25T23:51:40.376Z,-1.00
2019-01-25T23:54:06.547Z,-1.00
2019-01-25T23:56:32.743Z,-1.00
2019-01-25T23:58:58.848Z,-1.10
